createdAt,value
2019-05-15T00:01:45.723Z,8.30
2019-05-15T00:04:13.385Z,8.30
2019-05-15T00:06:41.048Z,8.30
2019-05-15T00:09:08.922Z,8.30
2019-05-15T00:11:38.884Z,8.20
2019-05-15T00:14:08.520Z,8.20
2019-05-15T00:16:38.629Z,8.20
2019-05-15T00:19:08.666Z,8.20
2019-05-15T00:21:38.263Z,8.20
2019-05-15T00:24:06.080Z,8.20
2019-05-15T00:26:33.817Z,8.10
2019-05-15T00:29:12.790Z,8.10
2019-05-15T00:31:32.217Z,8.10
2019-05-15T00:33:59.938Z,8.10
2019-05-15T00:36:28.654Z,8.00
2019-05-15T00:38:58.935Z,7.90
2019-05-15T00:41:27.877Z,7.80
2019-05-15T00:43:55.823Z,7.60
2019-05-15T00:46:23.565Z,7.50
2019-05-15T00:48:51.235Z,7.50
2019-05-15T00:51:19.743Z,7.40
2019-05-15T00:53:48.280Z,7.30
2019-05-15T00:56:16.449Z,7.20
2019-05-15T00:58:44.062Z,7.30
2019-05-15T01:01:11.867Z,7.20
2019-05-15T01:03:39.446Z,7.20
2019-05-15T01:06:08.318Z,7.20
2019-05-15T01:08:36.308Z,7.20
2019-05-15T01:11:04.161Z,7.20
2019-05-15T01:13:31.794Z,7.30
2019-05-15T01:15:59.684Z,7.20
2019-05-15T01:18:29.249Z,7.20
2019-05-15T01:20:58.710Z,7.20
2019-05-15T01:23:28.280Z,7.20
2019-05-15T01:25:56.178Z,7.20
2019-05-15T01:28:23.790Z,7.20
2019-05-15T01:30:51.420Z,7.20
2019-05-15T01:33:19.154Z,7.10
2019-05-15T01:35:48.725Z,7.10
2019-05-15T01:38:18.528Z,7.10
2019-05-15T01:40:48.356Z,7.20
2019-05-15T01:43:18.063Z,7.20
2019-05-15T01:45:45.216Z,7.10
2019-05-15T01:48:12.828Z,7.10
2019-05-15T01:50:40.422Z,7.10
2019-05-15T01:53:08.376Z,7.10
2019-05-15T01:55:39.579Z,7.10
2019-05-15T01:58:09.021Z,7.00
2019-05-15T02:00:38.869Z,7.00
2019-05-15T02:03:06.171Z,6.90
2019-05-15T02:05:33.804Z,6.90
2019-05-15T02:08:01.442Z,6.90
2019-05-15T02:10:29.328Z,6.80
2019-05-15T02:12:58.769Z,6.80
2019-05-15T02:15:28.536Z,6.80
2019-05-15T02:17:56.189Z,6.80
2019-05-15T02:20:24.669Z,6.80
2019-05-15T02:22:52.647Z,6.80
2019-05-15T02:25:20.344Z,6.70
2019-05-15T02:27:48.108Z,6.80
2019-05-15T02:30:24.193Z,6.80
2019-05-15T02:32:45.257Z,6.80
2019-05-15T02:35:13.043Z,6.80
2019-05-15T02:37:41.473Z,6.80
2019-05-15T02:40:12.007Z,6.80
2019-05-15T02:42:42.009Z,6.70
2019-05-15T02:45:10.600Z,6.60
2019-05-15T02:47:39.347Z,6.60
2019-05-15T02:50:10.611Z,6.50
2019-05-15T02:52:39.666Z,6.50
2019-05-15T02:55:09.329Z,6.50
2019-05-15T02:57:39.483Z,6.50
2019-05-15T03:00:10.342Z,6.50
2019-05-15T03:02:36.043Z,6.50
2019-05-15T03:05:03.885Z,6.50
2019-05-15T03:07:32.367Z,6.50
2019-05-15T03:10:00.374Z,6.40
2019-05-15T03:12:29.000Z,6.40
2019-05-15T03:14:59.902Z,6.40
2019-05-15T03:17:29.434Z,6.40
2019-05-15T03:19:59.067Z,6.30
2019-05-15T03:22:29.132Z,6.30
2019-05-15T03:24:59.068Z,6.20
2019-05-15T03:27:25.110Z,6.10
2019-05-15T03:29:52.769Z,6.10
2019-05-15T03:32:32.246Z,6.00
2019-05-15T03:34:56.356Z,6.00
2019-05-15T03:37:22.322Z,5.90
2019-05-15T03:39:51.827Z,6.00
2019-05-15T03:42:19.267Z,5.90
2019-05-15T03:44:49.992Z,6.00
2019-05-15T03:47:19.179Z,5.90
2019-05-15T03:49:49.116Z,5.90
2019-05-15T03:52:18.779Z,5.90
2019-05-15T03:54:45.577Z,5.90
2019-05-15T03:57:13.366Z,5.90
2019-05-15T03:59:42.470Z,5.90
2019-05-15T04:02:10.041Z,5.90
2019-05-15T04:04:38.806Z,5.80
2019-05-15T04:07:09.342Z,5.80
2019-05-15T04:09:38.686Z,5.80
2019-05-15T04:12:09.284Z,5.80
2019-05-15T04:14:39.233Z,5.70
2019-05-15T04:17:09.126Z,5.70
2019-05-15T04:19:39.005Z,5.60
2019-05-15T04:22:08.976Z,5.70
2019-05-15T04:24:39.489Z,5.70
2019-05-15T04:27:10.548Z,5.90
2019-05-15T04:29:39.516Z,5.80
2019-05-15T04:32:06.364Z,5.70
2019-05-15T04:34:34.803Z,5.70
2019-05-15T04:37:02.540Z,5.70
2019-05-15T04:39:30.170Z,5.60
2019-05-15T04:41:59.008Z,5.60
2019-05-15T04:44:28.960Z,5.60
2019-05-15T04:46:59.556Z,5.70
2019-05-15T04:49:29.087Z,5.80
2019-05-15T04:52:00.383Z,5.70
2019-05-15T04:54:28.919Z,5.70
2019-05-15T04:56:59.307Z,5.70
2019-05-15T04:59:25.881Z,5.80
2019-05-15T05:02:13.024Z,5.90
2019-05-15T05:04:23.113Z,5.90
2019-05-15T05:06:51.578Z,5.90
2019-05-15T05:09:20.006Z,6.00
2019-05-15T05:11:48.957Z,6.10
2019-05-15T05:14:18.789Z,6.10
2019-05-15T05:16:48.683Z,6.20
2019-05-15T05:19:15.817Z,6.30
2019-05-15T05:21:43.476Z,6.30
2019-05-15T05:24:11.327Z,6.40
2019-05-15T05:26:38.994Z,6.40
2019-05-15T05:29:08.484Z,6.50
2019-05-15T05:31:38.853Z,6.60
2019-05-15T05:34:08.140Z,6.70
2019-05-15T05:36:35.742Z,6.80
2019-05-15T05:39:05.311Z,6.90
2019-05-15T05:41:33.164Z,7.00
2019-05-15T05:44:00.894Z,7.00
2019-05-15T05:46:28.520Z,7.10
2019-05-15T05:48:58.323Z,7.20
2019-05-15T05:51:28.034Z,7.30
2019-05-15T05:53:55.548Z,7.40
2019-05-15T05:56:23.297Z,7.40
2019-05-15T05:58:50.956Z,7.40
2019-05-15T06:01:18.992Z,7.50
2019-05-15T06:03:52.909Z,7.50
2019-05-15T06:06:20.949Z,7.60
2019-05-15T06:08:48.572Z,7.60
2019-05-15T06:11:17.946Z,7.70
2019-05-15T06:13:45.854Z,7.90
2019-05-15T06:16:13.708Z,7.90
2019-05-15T06:18:41.383Z,8.00
2019-05-15T06:21:09.410Z,8.00
2019-05-15T06:23:44.238Z,8.10
2019-05-15T06:26:09.450Z,8.20
2019-05-15T06:28:39.129Z,8.30
2019-05-15T06:31:08.562Z,8.30
2019-05-15T06:33:38.195Z,8.30
2019-05-15T06:36:05.359Z,8.40
2019-05-15T06:38:33.029Z,8.50
2019-05-15T06:41:00.720Z,8.60
2019-05-15T06:43:28.412Z,8.60
2019-05-15T06:45:58.293Z,8.60
2019-05-15T06:48:25.935Z,8.70
2019-05-15T06:50:53.636Z,8.70
2019-05-15T06:53:21.240Z,8.80
2019-05-15T06:55:49.061Z,9.00
2019-05-15T06:58:19.054Z,9.10
2019-05-15T07:00:48.783Z,9.20
2019-05-15T07:03:24.385Z,9.30
2019-05-15T07:05:45.711Z,9.40
2019-05-15T07:08:13.483Z,9.50
2019-05-15T07:10:41.159Z,9.60
2019-05-15T07:13:08.942Z,9.60
2019-05-15T07:15:38.474Z,9.70
2019-05-15T07:18:08.522Z,9.80
2019-05-15T07:20:36.057Z,9.90
2019-05-15T07:23:03.728Z,9.80
2019-05-15T07:25:31.416Z,9.90
2019-05-15T07:27:59.102Z,10.00
2019-05-15T07:30:28.747Z,10.10
2019-05-15T07:32:58.533Z,10.20
2019-05-15T07:35:28.655Z,10.20
2019-05-15T07:37:55.811Z,10.40
2019-05-15T07:40:23.717Z,10.40
2019-05-15T07:42:51.375Z,10.40
2019-05-15T07:45:19.874Z,10.40
2019-05-15T07:47:48.981Z,10.50
2019-05-15T07:50:19.764Z,10.50
2019-05-15T07:52:48.538Z,10.50
2019-05-15T07:55:18.519Z,10.60
2019-05-15T07:57:46.147Z,10.60
2019-05-15T08:00:15.146Z,10.60
2019-05-15T08:02:42.878Z,10.60
2019-05-15T08:05:11.108Z,10.60
2019-05-15T08:07:39.017Z,10.60
2019-05-15T08:10:09.158Z,10.70
2019-05-15T08:12:39.168Z,10.80
2019-05-15T08:15:08.849Z,11.00
2019-05-15T08:17:56.048Z,11.10
2019-05-15T08:20:09.468Z,11.30
2019-05-15T08:22:38.334Z,11.40
2019-05-15T08:25:11.351Z,11.40
2019-05-15T08:27:39.274Z,11.50
2019-05-15T08:30:09.158Z,11.60
2019-05-15T08:32:38.873Z,11.70
2019-05-15T08:35:08.099Z,11.80
2019-05-15T08:37:38.283Z,11.80
2019-05-15T08:40:08.602Z,11.80
2019-05-15T08:42:41.588Z,11.70
2019-05-15T08:45:09.028Z,11.70
2019-05-15T08:47:38.554Z,11.70
2019-05-15T08:50:08.890Z,11.60
2019-05-15T08:52:39.080Z,11.60
2019-05-15T08:55:08.614Z,11.50
2019-05-15T08:57:38.313Z,11.50
2019-05-15T09:00:09.256Z,11.60
2019-05-15T09:02:38.286Z,11.70
2019-05-15T09:05:08.477Z,11.90
2019-05-15T09:07:38.370Z,12.00
2019-05-15T09:10:08.847Z,12.00
2019-05-15T09:12:38.871Z,12.10
2019-05-15T09:15:08.210Z,12.20
2019-05-15T09:17:36.011Z,12.30
2019-05-15T09:20:04.632Z,12.30
2019-05-15T09:22:32.401Z,12.40
2019-05-15T09:25:00.202Z,12.30
2019-05-15T09:27:27.942Z,12.40
2019-05-15T09:29:55.717Z,12.40
2019-05-15T09:32:23.409Z,12.50
2019-05-15T09:34:55.173Z,12.50
2019-05-15T09:37:20.566Z,12.60
2019-05-15T09:39:49.006Z,12.80
2019-05-15T09:42:17.971Z,12.90
2019-05-15T09:44:45.851Z,13.00
2019-05-15T09:47:13.655Z,12.90
2019-05-15T09:49:41.340Z,12.90
2019-05-15T09:52:09.179Z,12.90
2019-05-15T09:54:38.707Z,12.90
2019-05-15T09:57:10.143Z,12.90
2019-05-15T09:59:38.871Z,12.80
2019-05-15T10:02:05.746Z,12.90
2019-05-15T10:04:33.483Z,13.00
2019-05-15T10:07:01.323Z,13.20
2019-05-15T10:09:29.034Z,13.30
2019-05-15T10:11:56.668Z,13.40
2019-05-15T10:14:25.102Z,13.50
2019-05-15T10:16:54.351Z,13.50
2019-05-15T10:19:22.024Z,13.50
2019-05-15T10:21:52.936Z,13.50
2019-05-15T10:24:20.839Z,13.40
2019-05-15T10:26:49.068Z,13.40
2019-05-15T10:29:16.898Z,13.50
2019-05-15T10:31:48.101Z,13.40
2019-05-15T10:34:18.112Z,13.50
2019-05-15T10:36:45.177Z,13.70
2019-05-15T10:39:12.899Z,14.00
2019-05-15T10:41:40.957Z,14.20
2019-05-15T10:44:09.335Z,14.10
2019-05-15T10:46:38.283Z,14.10
2019-05-15T10:49:08.406Z,14.20
2019-05-15T10:51:35.903Z,14.30
2019-05-15T10:54:03.607Z,14.30
2019-05-15T10:56:32.349Z,14.30
2019-05-15T10:59:00.003Z,14.40
2019-05-15T11:01:27.722Z,14.60
2019-05-15T11:03:55.413Z,14.70
2019-05-15T11:06:23.529Z,14.70
2019-05-15T11:08:51.737Z,14.70
2019-05-15T11:11:19.436Z,14.70
2019-05-15T11:13:47.179Z,14.90
2019-05-15T11:16:14.890Z,15.60
2019-05-15T11:18:42.597Z,16.60
2019-05-15T11:21:10.385Z,17.90
2019-05-15T11:23:39.595Z,18.40
2019-05-15T11:26:08.813Z,18.50
2019-05-15T11:28:39.127Z,19.10
2019-05-15T11:31:09.957Z,19.80
2019-05-15T11:33:38.349Z,20.00
2019-05-15T11:36:06.366Z,20.20
2019-05-15T11:38:34.345Z,20.00
2019-05-15T11:41:04.549Z,20.50
2019-05-15T11:43:31.537Z,21.00
2019-05-15T11:45:59.662Z,21.50
2019-05-15T11:48:29.990Z,20.50
2019-05-15T11:50:57.063Z,19.80
2019-05-15T11:53:24.747Z,19.30
2019-05-15T11:55:52.428Z,19.00
2019-05-15T11:58:22.692Z,19.00
2019-05-15T12:00:50.325Z,19.30
2019-05-15T12:03:18.859Z,19.60
2019-05-15T12:05:47.114Z,19.10
2019-05-15T12:08:18.255Z,18.70
2019-05-15T12:10:45.346Z,18.30
2019-05-15T12:13:13.064Z,18.00
2019-05-15T12:15:40.828Z,17.90
2019-05-15T12:18:09.100Z,17.80
2019-05-15T12:20:38.964Z,17.50
2019-05-15T12:23:08.973Z,17.30
2019-05-15T12:25:38.844Z,17.30
2019-05-15T12:28:09.114Z,17.60
2019-05-15T12:30:35.824Z,17.90
2019-05-15T12:33:03.506Z,18.30
2019-05-15T12:35:31.178Z,18.20
2019-05-15T12:37:59.343Z,18.30
2019-05-15T13:00:29.840Z,19.10
2019-05-15T13:02:59.254Z,18.80
2019-05-15T13:05:28.690Z,18.90
2019-05-15T13:07:56.449Z,19.00
2019-05-15T13:10:25.168Z,18.90
2019-05-15T13:13:00.944Z,18.50
2019-05-15T13:15:22.542Z,18.50
2019-05-15T13:17:52.658Z,18.60
2019-05-15T13:20:19.997Z,19.20
2019-05-15T13:25:15.643Z,19.00
2019-05-15T13:27:43.420Z,18.80
2019-05-15T13:30:11.426Z,18.40
2019-05-15T13:32:41.116Z,18.60
2019-05-15T13:35:09.984Z,18.50
2019-05-15T13:37:39.047Z,18.30
2019-05-15T13:40:07.447Z,18.60
2019-05-15T13:42:35.219Z,19.00
2019-05-15T13:45:03.187Z,18.70
2019-05-15T13:47:31.099Z,18.10
2019-05-15T13:49:58.818Z,18.50
2019-05-15T13:52:28.327Z,18.20
2019-05-15T13:54:56.101Z,17.60
2019-05-15T13:57:23.907Z,17.30
2019-05-15T13:59:53.071Z,17.90
2019-05-15T14:02:20.659Z,18.60
2019-05-15T14:04:49.061Z,18.80
2019-05-15T14:07:19.203Z,19.00
2019-05-15T14:09:51.911Z,19.20
2019-05-15T14:12:19.562Z,19.20
2019-05-15T14:14:49.034Z,19.30
2019-05-15T14:17:18.156Z,19.80
2019-05-15T14:19:45.946Z,20.00
2019-05-15T14:22:13.523Z,20.30
2019-05-15T14:24:41.283Z,20.60
2019-05-15T14:27:08.972Z,21.20
2019-05-15T14:29:39.260Z,20.90
2019-05-15T14:32:08.119Z,20.70
2019-05-15T14:34:37.964Z,20.70
2019-05-15T14:37:08.703Z,20.80
2019-05-15T14:39:38.094Z,21.20
2019-05-15T14:42:08.822Z,21.50
2019-05-15T14:44:35.620Z,21.80
2019-05-15T14:47:03.314Z,22.90
2019-05-15T14:49:34.809Z,23.10
2019-05-15T14:52:08.293Z,22.60
2019-05-15T14:54:31.171Z,23.00
2019-05-15T14:57:00.121Z,23.20
2019-05-15T14:59:30.405Z,23.20
2019-05-15T15:01:58.179Z,23.30
2019-05-15T15:04:29.054Z,23.20
2019-05-15T15:06:57.969Z,23.20
2019-05-15T15:09:28.091Z,23.20
2019-05-15T15:11:55.728Z,22.60
2019-05-15T15:14:24.921Z,22.30
2019-05-15T15:16:53.010Z,22.70
2019-05-15T15:19:20.912Z,22.80
2019-05-15T15:21:48.808Z,22.00
2019-05-15T15:24:18.700Z,21.90
2019-05-15T15:26:49.312Z,21.40
2019-05-15T15:29:19.059Z,20.70
2019-05-15T15:31:51.435Z,20.20
2019-05-15T15:34:22.614Z,19.70
2019-05-15T15:36:57.586Z,19.30
2019-05-15T15:39:24.691Z,18.80
2019-05-15T15:41:52.514Z,18.70
2019-05-15T15:44:20.256Z,18.60
2019-05-15T15:46:48.603Z,18.20
2019-05-15T15:49:17.340Z,17.80
2019-05-15T15:51:45.070Z,17.60
2019-05-15T15:54:12.887Z,17.50
2019-05-15T15:56:40.637Z,17.50
2019-05-15T15:59:08.902Z,17.60
2019-05-15T16:01:49.381Z,17.70
2019-05-15T16:04:18.738Z,17.70
2019-05-15T16:06:51.484Z,17.50
2019-05-15T16:09:24.392Z,17.40
2019-05-15T16:11:59.904Z,17.40
2019-05-15T16:14:31.073Z,17.30
2019-05-15T16:16:59.002Z,17.20
2019-05-15T16:19:28.359Z,17.00
2019-05-15T16:21:56.280Z,16.90
2019-05-15T16:24:29.277Z,17.00
2019-05-15T16:26:57.966Z,16.90
2019-05-15T16:29:28.198Z,16.90
2019-05-15T16:32:00.738Z,16.90
2019-05-15T16:34:28.554Z,16.80
2019-05-15T16:36:58.535Z,16.70
2019-05-15T16:39:48.784Z,16.60
2019-05-15T16:42:18.099Z,16.30
2019-05-15T16:44:45.929Z,16.10
2019-05-15T16:47:27.962Z,16.20
2019-05-15T16:49:57.985Z,15.80
2019-05-15T16:52:25.979Z,15.80
2019-05-15T16:54:54.830Z,15.80
2019-05-15T16:57:22.653Z,15.60
2019-05-15T16:59:50.400Z,15.50
2019-05-15T17:02:18.820Z,15.40
2019-05-15T17:04:48.834Z,15.20
2019-05-15T17:07:18.158Z,15.20
2019-05-15T17:09:47.969Z,15.10
2019-05-15T17:12:15.671Z,15.10
2019-05-15T17:14:43.530Z,15.10
2019-05-15T17:17:11.181Z,15.00
2019-05-15T17:19:38.815Z,14.90
2019-05-15T17:22:09.486Z,14.80
2019-05-15T17:24:38.681Z,14.70
2019-05-15T17:27:10.314Z,14.60
2019-05-15T17:29:40.127Z,14.50
2019-05-15T17:32:08.526Z,14.50
2019-05-15T17:34:39.154Z,14.50
2019-05-15T17:37:07.366Z,14.50
2019-05-15T17:39:40.877Z,14.50
2019-05-15T17:42:06.076Z,14.50
2019-05-15T17:44:33.905Z,14.40
2019-05-15T17:47:01.744Z,14.30
2019-05-15T17:49:30.698Z,14.20
2019-05-15T17:51:58.682Z,14.20
2019-05-15T17:54:28.612Z,14.20
2019-05-15T17:56:58.451Z,14.20
2019-05-15T17:59:25.829Z,14.20
2019-05-15T18:01:54.633Z,14.00
2019-05-15T18:04:22.414Z,13.90
2019-05-15T18:06:52.748Z,13.80
2019-05-15T18:09:20.616Z,13.70
2019-05-15T18:11:48.404Z,13.70
2019-05-15T18:14:18.548Z,13.70
2019-05-15T18:16:48.742Z,13.60
2019-05-15T18:19:18.644Z,13.60
2019-05-15T18:21:46.350Z,13.70
2019-05-15T18:24:14.319Z,13.70
2019-05-15T18:26:42.182Z,13.70
2019-05-15T18:29:10.236Z,13.50
2019-05-15T18:31:38.361Z,13.40
2019-05-15T18:34:08.232Z,13.40
2019-05-15T18:36:35.982Z,13.40
2019-05-15T18:39:08.534Z,13.40
2019-05-15T18:41:37.803Z,13.40
2019-05-15T18:44:05.816Z,13.40
2019-05-15T18:46:33.681Z,13.40
2019-05-15T18:49:01.819Z,13.40
2019-05-15T18:51:30.212Z,13.30
2019-05-15T18:53:58.753Z,13.20
2019-05-15T18:56:29.450Z,13.10
2019-05-15T18:58:57.832Z,13.10
2019-05-15T19:01:28.294Z,13.00
2019-05-15T19:03:55.600Z,12.90
2019-05-15T19:06:23.989Z,12.90
2019-05-15T19:08:53.245Z,12.80
2019-05-15T19:11:21.333Z,12.80
2019-05-15T19:13:49.184Z,12.80
2019-05-15T19:16:16.967Z,12.70
2019-05-15T19:18:45.071Z,12.80
2019-05-15T19:21:12.886Z,12.70
2019-05-15T19:23:40.716Z,12.60
2019-05-15T19:26:11.323Z,12.60
2019-05-15T19:28:39.113Z,12.60
2019-05-15T19:31:08.937Z,12.50
2019-05-15T19:33:40.796Z,12.50
2019-05-15T19:36:09.807Z,12.50
2019-05-15T19:38:37.718Z,12.50
2019-05-15T19:41:06.678Z,12.60
2019-05-15T19:43:37.963Z,12.50
2019-05-15T19:46:07.940Z,12.40
2019-05-15T19:48:37.976Z,12.50
2019-05-15T19:51:06.053Z,12.50
2019-05-15T19:53:33.843Z,12.50
2019-05-15T19:56:01.993Z,12.50
2019-05-15T19:58:30.013Z,12.40
2019-05-15T20:00:57.854Z,12.40
2019-05-15T20:03:25.594Z,12.40
2019-05-15T20:05:53.640Z,12.30
2019-05-15T20:08:21.457Z,12.30
2019-05-15T20:10:49.324Z,12.20
2019-05-15T20:13:18.353Z,12.20
2019-05-15T20:15:48.550Z,12.10
2019-05-15T20:18:18.402Z,12.10
2019-05-15T20:20:47.826Z,12.00
2019-05-15T20:23:15.637Z,12.10
2019-05-15T20:25:43.280Z,12.00
2019-05-15T20:28:12.470Z,11.90
2019-05-15T20:30:40.246Z,11.90
2019-05-15T20:33:08.888Z,11.90
2019-05-15T20:35:38.617Z,11.90
2019-05-15T20:38:09.081Z,11.70
2019-05-15T20:40:37.337Z,11.80
2019-05-15T20:43:08.085Z,11.70
2019-05-15T20:45:35.966Z,11.80
2019-05-15T20:48:05.070Z,11.70
2019-05-15T20:50:38.584Z,11.70
2019-05-15T20:53:05.775Z,11.70
2019-05-15T20:55:33.502Z,11.70
2019-05-15T20:58:03.384Z,11.70
2019-05-15T21:00:34.128Z,11.70
2019-05-15T21:03:01.962Z,11.70
2019-05-15T21:05:29.955Z,11.60
2019-05-15T21:07:58.387Z,11.60
2019-05-15T21:10:26.346Z,11.60
2019-05-15T21:12:54.176Z,11.60
2019-05-15T21:15:22.154Z,11.60
2019-05-15T21:17:57.799Z,11.60
2019-05-15T21:20:21.866Z,11.60
2019-05-15T21:22:49.608Z,11.50
2019-05-15T21:25:19.740Z,11.50
2019-05-15T21:27:48.863Z,11.40
2019-05-15T21:30:18.910Z,11.40
2019-05-15T21:32:49.441Z,11.40
2019-05-15T21:35:18.014Z,11.30
2019-05-15T21:37:45.934Z,11.30
2019-05-15T21:40:13.659Z,11.30
2019-05-15T21:42:41.923Z,11.30
2019-05-15T21:45:14.876Z,11.30
2019-05-15T21:47:41.527Z,11.30
2019-05-15T21:50:10.417Z,11.40
2019-05-15T21:52:39.173Z,11.30
2019-05-15T21:55:09.221Z,11.40
2019-05-15T21:57:40.081Z,11.40
2019-05-15T22:00:15.148Z,11.40
2019-05-15T22:02:44.709Z,11.30
2019-05-15T22:05:12.510Z,11.30
2019-05-15T22:07:40.254Z,11.30
2019-05-15T22:10:10.484Z,11.20
2019-05-15T22:12:38.248Z,11.30
2019-05-15T22:15:09.071Z,11.30
2019-05-15T22:17:38.761Z,11.20
2019-05-15T22:20:08.739Z,11.20
2019-05-15T22:22:36.668Z,11.10
2019-05-15T22:25:10.778Z,11.10
2019-05-15T22:27:37.787Z,11.10
2019-05-15T22:30:08.078Z,11.10
2019-05-15T22:32:41.268Z,11.10
2019-05-15T22:35:12.836Z,10.90
2019-05-15T22:37:41.102Z,11.00
2019-05-15T22:40:06.175Z,11.00
2019-05-15T22:42:34.238Z,11.00
2019-05-15T22:45:01.923Z,11.00
2019-05-15T22:47:31.060Z,10.90
2019-05-15T22:49:59.339Z,10.90
2019-05-15T22:52:27.864Z,10.90
2019-05-15T22:54:55.734Z,10.90
2019-05-15T22:57:23.531Z,10.80
2019-05-15T22:59:51.194Z,10.80
2019-05-15T23:02:18.807Z,10.80
2019-05-15T23:04:46.581Z,10.80
2019-05-15T23:07:14.233Z,10.80
2019-05-15T23:09:44.489Z,10.80
2019-05-15T23:12:12.174Z,10.80
2019-05-15T23:14:39.890Z,10.70
2019-05-15T23:17:10.152Z,10.70
2019-05-15T23:19:38.583Z,10.80
2019-05-15T23:22:08.369Z,10.80
2019-05-15T23:24:36.095Z,10.80
2019-05-15T23:27:03.897Z,10.70
2019-05-15T23:29:32.736Z,10.70
2019-05-15T23:32:00.381Z,10.70
2019-05-15T23:34:28.372Z,10.60
2019-05-15T23:36:57.710Z,10.60
2019-05-15T23:39:25.553Z,10.60
2019-05-15T23:42:00.057Z,10.60
2019-05-15T23:44:27.872Z,10.50
2019-05-15T23:46:55.486Z,10.50
2019-05-15T23:49:23.302Z,10.50
2019-05-15T23:51:51.117Z,10.50
2019-05-15T23:54:19.156Z,10.40
2019-05-15T23:56:46.934Z,10.40
2019-05-15T23:59:14.615Z,10.40
